Time,TemperatureF,DewpointF,PressureIn,WindDirection,WindDirectionDegrees,WindSpeedMPH,WindSpeedGustMPH,Humidity,HourlyPrecipIn,Conditions,Clouds,dailyrainin,SoftwareType,DateUTC
2013-03-03 00:13:00,11.3,10.8,29.97,ENE,67,2.7,-999.0,98,-99.99,,,0.00,Acu-Link.com,2013-03-03 07:13:00,
2013-03-03 00:28:00,11.1,10.6,29.97,NE,45,2.2,-999.0,98,-99.99,,,0.00,Acu-Link.com,2013-03-03 07:28:00,
2013-03-03 00:43:00,10.8,10.3,29.97,NE,45,0.0,-999.0,98,-99.99,,,0.00,Acu-Link.com,2013-03-03 07:43:00,
2013-03-03 00:58:00,9.7,9.3,29.98,NNW,337,0.0,-999.0,98,-99.99,,,0.00,Acu-Link.com,2013-03-03 07:58:00,
2013-03-03 01:14:00,9.5,9.1,29.96,NE,45,0.0,-999.0,98,-99.99,,,0.00,Acu-Link.com,2013-03-03 08:14:00,
2013-03-03 01:29:00,10.0,9.6,29.96,ENE,67,0.0,-999.0,98,-99.99,,,0.00,Acu-Link.com,2013-03-03 08:29:00,
2013-03-03 01:44:00,9.3,8.9,29.96,North,0,0.0,-999.0,98,-99.99,,,0.00,Acu-Link.com,2013-03-03 08:44:00,
2013-03-03 02:00:00,8.6,8.2,29.94,NE,45,0.0,-999.0,98,-99.99,,,0.00,Acu-Link.com,2013-03-03 09:00:00,
2013-03-03 02:19:00,8.6,8.2,29.95,NE,45,0.0,-999.0,98,-99.99,,,0.00,Acu-Link.com,2013-03-03 09:19:00,
2013-03-03 02:34:00,7.5,7.1,29.92,NE,45,0.0,-999.0,98,-99.99,,,0.00,Acu-Link.com,2013-03-03 09:34:00,
2013-03-03 02:49:00,7.2,6.8,29.91,NE,45,0.0,-999.0,98,-99.99,,,0.00,Acu-Link.com,2013-03-03 09:49:00,
2013-03-03 03:04:00,6.6,6.2,29.91,ENE,67,0.0,-999.0,98,-99.99,,,0.00,Acu-Link.com,2013-03-03 10:04:00,
2013-03-03 03:20:00,6.3,5.9,29.91,North,0,0.0,-999.0,98,-99.99,,,0.00,Acu-Link.com,2013-03-03 10:20:00,
2013-03-03 03:35:00,6.6,6.2,29.90,ENE,67,0.0,-999.0,98,-99.99,,,0.00,Acu-Link.com,2013-03-03 10:35:00,
2013-03-03 03:51:00,5.7,5.3,29.90,NE,45,0.0,-999.0,98,-99.99,,,0.00,Acu-Link.com,2013-03-03 10:51:00,
2013-03-03 04:06:00,5.9,5.5,29.88,East,90,0.0,-999.0,98,-99.99,,,0.00,Acu-Link.com,2013-03-03 11:06:00,
2013-03-03 04:21:00,5.5,5.1,29.87,ESE,112,0.0,-999.0,98,-99.99,,,0.00,Acu-Link.com,2013-03-03 11:21:00,
2013-03-03 04:37:00,5.4,5.0,29.88,ESE,112,0.0,-999.0,98,-99.99,,,0.00,Acu-Link.com,2013-03-03 11:37:00,
2013-03-03 04:52:00,4.6,4.2,29.87,ENE,67,0.0,-999.0,98,-99.99,,,0.00,Acu-Link.com,2013-03-03 11:52:00,
2013-03-03 05:07:00,4.6,4.2,29.88,ENE,67,0.0,-999.0,98,-99.99,,,0.00,Acu-Link.com,2013-03-03 12:07:00,
2013-03-03 05:23:00,5.2,4.8,29.87,NE,45,3.7,-999.0,98,-99.99,,,0.00,Acu-Link.com,2013-03-03 12:23:00,
2013-03-03 05:38:00,4.6,4.2,29.86,ENE,67,1.1,-999.0,98,-99.99,,,0.00,Acu-Link.com,2013-03-03 12:38:00,
2013-03-03 05:53:00,4.3,3.9,29.85,East,90,1.7,-999.0,98,-99.99,,,0.00,Acu-Link.com,2013-03-03 12:53:00,
2013-03-03 06:08:00,3.6,3.2,29.84,ENE,67,2.2,-999.0,98,-99.99,,,0.00,Acu-Link.com,2013-03-03 13:08:00,
2013-03-03 06:23:00,3.0,2.6,29.85,NE,45,2.2,-999.0,98,-99.99,,,0.00,Acu-Link.com,2013-03-03 13:23:00,
2013-03-03 06:39:00,2.8,2.4,29.85,NE,45,0.0,-999.0,98,-99.99,,,0.00,Acu-Link.com,2013-03-03 13:39:00,
2013-03-03 06:54:00,4.3,3.9,29.84,WNW,292,0.0,-999.0,98,-99.99,,,0.00,Acu-Link.com,2013-03-03 13:54:00,
2013-03-03 07:09:00,10.9,10.4,29.84,NE,45,1.7,-999.0,98,-99.99,,,0.00,Acu-Link.com,2013-03-03 14:09:00,
2013-03-03 07:25:00,13.8,10.4,29.83,East,90,2.2,-999.0,86,-99.99,,,0.00,Acu-Link.com,2013-03-03 14:25:00,
2013-03-03 07:40:00,13.8,7.4,29.83,NE,45,3.7,-999.0,75,-99.99,,,0.00,Acu-Link.com,2013-03-03 14:40:00,
2013-03-03 07:55:00,11.1,6.4,29.82,ENE,67,0.0,-999.0,81,-99.99,,,0.00,Acu-Link.com,2013-03-03 14:55:00,
2013-03-03 08:10:00,13.1,7.8,29.82,East,90,1.7,-999.0,79,-99.99,,,0.00,Acu-Link.com,2013-03-03 15:10:00,
2013-03-03 08:26:00,18.1,10.6,29.83,NE,45,4.7,-999.0,72,-99.99,,,0.00,Acu-Link.com,2013-03-03 15:26:00,
2013-03-03 08:41:00,16.5,10.9,29.81,East,90,3.2,-999.0,78,-99.99,,,0.00,Acu-Link.com,2013-03-03 15:41:00,
2013-03-03 08:56:00,17.6,10.7,29.80,ESE,112,2.7,-999.0,74,-99.99,,,0.00,Acu-Link.com,2013-03-03 15:56:00,
2013-03-03 09:11:00,23.0,13.4,29.81,ESE,112,1.7,-999.0,66,-99.99,,,0.00,Acu-Link.com,2013-03-03 16:11:00,
2013-03-03 09:26:00,21.2,13.9,29.80,ESE,112,1.1,-999.0,73,-99.99,,,0.00,Acu-Link.com,2013-03-03 16:26:00,
2013-03-03 09:41:00,23.4,15.7,29.79,NE,45,4.2,-999.0,72,-99.99,,,0.00,Acu-Link.com,2013-03-03 16:41:00,
2013-03-03 09:57:00,20.3,13.7,29.79,ESE,112,0.0,-999.0,75,-99.99,,,0.00,Acu-Link.com,2013-03-03 16:57:00,
2013-03-03 10:12:00,20.8,15.3,29.79,ESE,112,0.0,-999.0,79,-99.99,,,0.00,Acu-Link.com,2013-03-03 17:12:00,
2013-03-03 10:27:00,27.1,18.0,29.78,ESE,112,2.7,-999.0,68,-99.99,,,0.00,Acu-Link.com,2013-03-03 17:27:00,
2013-03-03 10:42:00,24.1,17.0,29.77,ESE,112,3.7,-999.0,74,-99.99,,,0.00,Acu-Link.com,2013-03-03 17:42:00,
2013-03-03 10:58:00,25.0,17.9,29.78,SE,135,2.7,-999.0,74,-99.99,,,0.00,Acu-Link.com,2013-03-03 17:58:00,
2013-03-03 11:13:00,27.9,19.4,29.76,East,90,2.7,-999.0,70,-99.99,,,0.00,Acu-Link.com,2013-03-03 18:13:00,
2013-03-03 11:28:00,30.7,20.0,29.76,ESE,112,3.7,-999.0,64,-99.99,,,0.00,Acu-Link.com,2013-03-03 18:28:00,
2013-03-03 11:44:00,33.4,21.0,29.77,SSE,157,2.7,-999.0,60,-99.99,,,0.00,Acu-Link.com,2013-03-03 18:44:00,
2013-03-03 11:59:00,32.0,21.2,29.75,NE,45,0.0,-999.0,64,-99.99,,,0.00,Acu-Link.com,2013-03-03 18:59:00,
2013-03-03 12:14:00,36.7,24.1,29.73,ENE,67,4.7,-999.0,60,-99.99,,,0.00,Acu-Link.com,2013-03-03 19:14:00,
2013-03-03 12:29:00,39.9,25.5,29.71,East,90,9.4,-999.0,56,-99.99,,,0.00,Acu-Link.com,2013-03-03 19:29:00,
2013-03-03 12:44:00,38.7,26.0,29.69,ENE,67,8.9,-999.0,60,-99.99,,,0.00,Acu-Link.com,2013-03-03 19:44:00,
2013-03-03 12:59:00,41.4,27.3,29.67,ENE,67,6.3,-999.0,57,-99.99,,,0.00,Acu-Link.com,2013-03-03 19:59:00,
2013-03-03 13:14:00,42.8,28.2,29.66,East,90,7.8,-999.0,56,-99.99,,,0.00,Acu-Link.com,2013-03-03 20:14:00,
2013-03-03 13:30:00,41.9,28.6,29.65,ESE,112,6.3,-999.0,59,-99.99,,,0.00,Acu-Link.com,2013-03-03 20:30:00,
2013-03-03 13:45:00,43.7,29.9,29.63,ESE,112,5.3,-999.0,58,-99.99,,,0.00,Acu-Link.com,2013-03-03 20:45:00,
2013-03-03 14:00:00,41.7,29.7,29.62,East,90,5.3,-999.0,62,-99.99,,,0.00,Acu-Link.com,2013-03-03 21:00:00,
2013-03-03 14:15:00,41.0,29.8,29.62,NE,45,4.2,-999.0,64,-99.99,,,0.00,Acu-Link.com,2013-03-03 21:15:00,
2013-03-03 14:30:00,42.8,30.3,29.61,East,90,6.3,-999.0,61,-99.99,,,0.00,Acu-Link.com,2013-03-03 21:30:00,
2013-03-03 14:45:00,43.5,28.9,29.60,NNE,22,1.7,-999.0,56,-99.99,,,0.00,Acu-Link.com,2013-03-03 21:45:00,
2013-03-03 15:01:00,43.5,29.3,29.61,ESE,112,0.0,-999.0,57,-99.99,,,0.00,Acu-Link.com,2013-03-03 22:01:00,
2013-03-03 15:16:00,44.6,30.7,29.60,ESE,112,5.8,-999.0,58,-99.99,,,0.00,Acu-Link.com,2013-03-03 22:16:00,
2013-03-03 15:31:00,44.2,30.4,29.59,ESE,112,4.7,-999.0,58,-99.99,,,0.00,Acu-Link.com,2013-03-03 22:31:00,
2013-03-03 15:46:00,46.6,31.3,29.59,NE,45,0.0,-999.0,55,-99.99,,,0.00,Acu-Link.com,2013-03-03 22:46:00,
2013-03-03 16:02:00,46.9,27.2,29.57,SSE,157,4.7,-999.0,46,-99.99,,,0.00,Acu-Link.com,2013-03-03 23:02:00,
2013-03-03 16:17:00,45.0,27.5,29.57,West,270,4.2,-999.0,50,-99.99,,,0.00,Acu-Link.com,2013-03-03 23:17:00,
2013-03-03 16:32:00,44.6,27.1,29.58,SW,225,3.2,-999.0,50,-99.99,,,0.00,Acu-Link.com,2013-03-03 23:32:00,
2013-03-03 16:47:00,44.8,27.3,29.58,West,270,2.2,-999.0,50,-99.99,,,0.00,Acu-Link.com,2013-03-03 23:47:00,
2013-03-03 17:03:00,43.3,26.4,29.58,SSW,202,4.7,-999.0,51,-99.99,,,0.00,Acu-Link.com,2013-03-04 00:03:00,
2013-03-03 17:18:00,42.1,27.5,29.58,WSW,247,8.3,-999.0,56,-99.99,,,0.00,Acu-Link.com,2013-03-04 00:18:00,
2013-03-03 17:33:00,40.6,27.4,29.58,NNW,337,7.3,-999.0,59,-99.99,,,0.00,Acu-Link.com,2013-03-04 00:33:00,
2013-03-03 17:48:00,39.9,28.0,29.59,WSW,247,5.8,-999.0,62,-99.99,,,0.00,Acu-Link.com,2013-03-04 00:48:00,
2013-03-03 18:03:00,38.7,29.8,29.61,South,180,4.7,-999.0,70,-99.99,,,0.00,Acu-Link.com,2013-03-04 01:03:00,
2013-03-03 18:19:00,37.8,29.6,29.61,NNW,337,2.7,-999.0,72,-99.99,,,0.00,Acu-Link.com,2013-03-04 01:19:00,
2013-03-03 18:34:00,37.2,30.3,29.62,South,180,4.2,-999.0,76,-99.99,,,0.00,Acu-Link.com,2013-03-04 01:34:00,
2013-03-03 18:49:00,36.3,31.3,29.63,SW,225,6.3,-999.0,82,-99.99,,,0.00,Acu-Link.com,2013-03-04 01:49:00,
2013-03-03 19:05:00,35.4,33.6,29.62,WSW,247,3.7,-999.0,93,-99.99,,,0.00,Acu-Link.com,2013-03-04 02:05:00,
2013-03-03 19:20:00,34.5,34.0,29.62,SW,225,2.2,-999.0,98,-99.99,,,0.00,Acu-Link.com,2013-03-04 02:20:00,
2013-03-03 19:35:00,34.0,33.5,29.61,West,270,2.2,-999.0,98,-99.99,,,0.00,Acu-Link.com,2013-03-04 02:35:00,
2013-03-03 19:50:00,33.6,33.1,29.60,South,180,0.0,-999.0,98,-99.99,,,0.00,Acu-Link.com,2013-03-04 02:50:00,
2013-03-03 20:06:00,33.4,32.9,29.61,West,270,1.7,-999.0,98,-99.99,,,0.00,Acu-Link.com,2013-03-04 03:06:00,
2013-03-03 20:21:00,33.4,32.9,29.60,South,180,4.2,-999.0,98,-99.99,,,0.00,Acu-Link.com,2013-03-04 03:21:00,
2013-03-03 20:36:00,33.4,32.9,29.59,SSE,157,4.7,-999.0,98,-99.99,,,0.00,Acu-Link.com,2013-03-04 03:36:00,
2013-03-03 20:51:00,33.4,32.9,29.60,South,180,4.2,-999.0,98,-99.99,,,0.00,Acu-Link.com,2013-03-04 03:51:00,
2013-03-03 21:07:00,33.1,32.6,29.59,South,180,2.7,-999.0,98,-99.99,,,0.00,Acu-Link.com,2013-03-04 04:07:00,
2013-03-03 21:22:00,32.9,32.4,29.59,SW,225,1.7,-999.0,98,-99.99,,,0.00,Acu-Link.com,2013-03-04 04:22:00,
2013-03-03 21:37:00,32.4,31.9,29.58,SSE,157,0.0,-999.0,98,-99.99,,,0.00,Acu-Link.com,2013-03-04 04:37:00,
2013-03-03 21:53:00,32.2,31.7,29.58,East,90,0.0,-999.0,98,-99.99,,,0.00,Acu-Link.com,2013-03-04 04:53:00,
2013-03-03 22:08:00,32.0,31.5,29.58,East,90,0.0,-999.0,98,-99.99,,,0.00,Acu-Link.com,2013-03-04 05:08:00,
2013-03-03 22:24:00,31.5,31.0,29.58,East,90,4.2,-999.0,98,-99.99,,,0.00,Acu-Link.com,2013-03-04 05:24:00,
2013-03-03 22:39:00,31.5,31.0,29.56,East,90,4.2,-999.0,98,-99.99,,,0.00,Acu-Link.com,2013-03-04 05:39:00,
2013-03-03 22:54:00,31.5,31.0,29.55,NNW,337,3.2,-999.0,98,-99.99,,,0.00,Acu-Link.com,2013-03-04 05:54:00,
2013-03-03 23:09:00,31.6,31.1,29.54,NE,45,4.7,-999.0,98,-99.99,,,0.00,Acu-Link.com,2013-03-04 06:09:00,
2013-03-03 23:24:00,31.5,31.0,29.54,NE,45,4.2,-999.0,98,-99.99,,,0.00,Acu-Link.com,2013-03-04 06:24:00,
2013-03-03 23:39:00,31.5,31.0,29.55,NNE,22,4.2,-999.0,98,-99.99,,,0.00,Acu-Link.com,2013-03-04 06:39:00,
2013-03-03 23:55:00,31.5,31.0,29.54,ENE,67,4.7,-999.0,98,-99.99,,,0.00,Acu-Link.com,2013-03-04 06:55:00,